createdAt,value
2019-03-13T00:00:46.365Z,63.10
2019-03-13T00:04:10.350Z,61.50
2019-03-13T00:07:38.200Z,62.47
2019-03-13T00:11:02.208Z,57.70
2019-03-13T00:14:26.191Z,55.27
2019-03-13T00:17:50.073Z,61.73
2019-03-13T00:21:14.364Z,59.63
2019-03-13T00:24:38.340Z,53.23
2019-03-13T00:28:02.170Z,56.37
2019-03-13T00:35:49.983Z,50.13
2019-03-13T00:39:13.868Z,49.17
2019-03-13T00:42:37.932Z,48.70
2019-03-13T00:46:01.791Z,48.67
2019-03-13T00:49:27.367Z,49.07
2019-03-13T00:52:55.537Z,48.10
2019-03-13T00:56:20.778Z,44.33
2019-03-13T00:59:46.778Z,45.03
2019-03-13T01:03:24.116Z,41.93
2019-03-13T01:06:52.220Z,41.33
2019-03-13T01:10:17.731Z,40.23
2019-03-13T01:13:41.490Z,37.93
2019-03-13T01:17:07.740Z,36.93
2019-03-13T01:20:31.513Z,34.80
2019-03-13T01:23:58.402Z,33.30
2019-03-13T01:27:23.837Z,33.07
2019-03-13T01:31:09.496Z,33.57
2019-03-13T01:34:43.803Z,33.60
2019-03-13T01:38:09.338Z,35.20
2019-03-13T01:41:36.068Z,31.30
2019-03-13T01:45:01.816Z,30.53
2019-03-13T01:56:24.887Z,28.43
2019-03-13T01:59:48.739Z,28.23
2019-03-13T02:03:12.593Z,27.03
2019-03-13T02:06:36.500Z,27.60
2019-03-13T02:10:04.474Z,26.07
2019-03-13T02:13:28.102Z,27.07
2019-03-13T02:16:57.977Z,22.73
2019-03-13T02:20:22.189Z,26.63
2019-03-13T02:23:49.725Z,26.87
2019-03-13T02:31:21.084Z,22.83
2019-03-13T02:34:47.730Z,26.43
2019-03-13T02:38:11.650Z,23.63
2019-03-13T02:41:35.358Z,24.07
2019-03-13T02:44:59.288Z,23.23
2019-03-13T02:48:23.277Z,21.63
2019-03-13T02:51:47.262Z,21.20
2019-03-13T02:55:11.849Z,20.30
2019-03-13T02:58:35.679Z,24.10
2019-03-13T03:02:01.078Z,22.97
2019-03-13T03:05:24.897Z,25.37
2019-03-13T03:08:48.705Z,24.90
2019-03-13T03:12:12.548Z,26.57
2019-03-13T03:15:36.335Z,27.50
2019-03-13T03:19:00.200Z,29.70
2019-03-13T03:22:23.984Z,26.73
2019-03-13T03:25:47.986Z,30.07
2019-03-13T03:29:11.963Z,24.40
2019-03-13T03:32:35.952Z,28.13
2019-03-13T03:35:59.758Z,22.63
2019-03-13T03:39:23.826Z,26.80
2019-03-13T03:42:47.993Z,24.47
2019-03-13T03:46:11.678Z,20.80
2019-03-13T03:49:35.536Z,26.30
2019-03-13T03:52:59.562Z,20.00
2019-03-13T03:56:23.399Z,23.03
2019-03-13T03:59:47.437Z,19.67
2019-03-13T04:03:11.103Z,19.50
2019-03-13T04:06:34.932Z,20.13
2019-03-13T04:09:58.823Z,17.80
2019-03-13T04:13:22.476Z,17.07
2019-03-13T04:16:46.704Z,18.93
2019-03-13T04:20:12.301Z,13.97
2019-03-13T04:23:36.100Z,17.40
2019-03-13T04:27:00.040Z,13.63
2019-03-13T04:30:23.876Z,15.87
2019-03-13T04:33:47.725Z,16.40
2019-03-13T04:37:11.606Z,14.47
2019-03-13T04:40:35.441Z,16.63
2019-03-13T04:43:59.271Z,15.33
2019-03-13T04:47:25.047Z,15.50
2019-03-13T04:50:48.670Z,15.77
2019-03-13T04:54:12.373Z,16.67
2019-03-13T04:57:36.242Z,15.37
2019-03-13T05:01:00.051Z,17.67
2019-03-13T05:04:24.625Z,15.27
2019-03-13T05:07:48.587Z,17.10
2019-03-13T05:11:12.311Z,15.47
2019-03-13T05:14:36.020Z,15.27
2019-03-13T05:17:59.771Z,16.57
2019-03-13T05:21:23.671Z,15.80
2019-03-13T05:24:47.629Z,14.67
2019-03-13T05:28:11.418Z,13.90
2019-03-13T05:31:35.232Z,15.90
2019-03-13T05:34:59.241Z,14.13
2019-03-13T05:38:30.672Z,13.37
2019-03-13T05:41:55.985Z,12.83
2019-03-13T05:45:19.779Z,13.20
2019-03-13T05:48:43.740Z,14.83
2019-03-13T05:52:07.528Z,14.00
2019-03-13T05:55:31.404Z,12.83
2019-03-13T05:58:55.239Z,12.53
2019-03-13T06:02:19.100Z,13.40
2019-03-13T06:05:42.854Z,11.83
2019-03-13T06:09:07.474Z,11.90
2019-03-13T06:12:31.192Z,10.80
2019-03-13T06:15:54.982Z,11.83
2019-03-13T06:19:18.885Z,10.80
2019-03-13T06:22:43.099Z,10.17
2019-03-13T06:26:06.875Z,11.13
2019-03-13T06:29:31.790Z,10.83
2019-03-13T06:32:56.551Z,10.73
2019-03-13T06:36:20.149Z,10.40
2019-03-13T06:39:44.178Z,9.03
2019-03-13T06:43:08.024Z,10.63
2019-03-13T06:46:31.754Z,9.73
2019-03-13T06:49:55.678Z,9.67
2019-03-13T06:53:19.429Z,10.70
2019-03-13T06:56:43.143Z,8.13
2019-03-13T07:00:29.536Z,11.53
2019-03-13T07:04:00.483Z,10.10
2019-03-13T07:07:25.886Z,7.57
2019-03-13T07:10:57.403Z,8.03
2019-03-13T07:14:25.574Z,7.13
2019-03-13T07:17:58.712Z,6.93
2019-03-13T07:21:24.162Z,4.57
2019-03-13T07:24:49.477Z,6.67
2019-03-13T07:28:14.834Z,7.17
2019-03-13T07:31:56.476Z,6.77
2019-03-13T07:35:27.644Z,7.53
2019-03-13T07:38:55.864Z,6.53
2019-03-13T07:42:37.328Z,6.40
2019-03-13T07:46:05.598Z,5.97
2019-03-13T07:49:45.633Z,7.10
2019-03-13T07:53:11.075Z,7.23
2019-03-13T07:56:54.596Z,8.97
2019-03-13T08:00:31.724Z,6.50
2019-03-13T08:04:00.283Z,7.70
2019-03-13T08:07:31.528Z,7.50
2019-03-13T08:11:02.732Z,6.20
2019-03-13T08:14:30.638Z,6.90
2019-03-13T08:17:55.894Z,6.30
2019-03-13T08:21:30.344Z,6.93
2019-03-13T08:24:55.764Z,6.87
2019-03-13T08:28:32.871Z,6.77
2019-03-13T08:32:14.395Z,6.80
2019-03-13T08:35:39.811Z,7.10
2019-03-13T08:39:19.385Z,7.90
2019-03-13T08:42:47.733Z,6.40
2019-03-13T08:46:15.663Z,7.47
2019-03-13T08:49:41.176Z,7.50
2019-03-13T08:53:07.041Z,7.97
2019-03-13T08:56:32.482Z,7.20
2019-03-13T08:59:57.842Z,7.53
2019-03-13T09:03:23.305Z,7.00
2019-03-13T09:06:51.837Z,7.20
2019-03-13T09:10:23.766Z,7.47
2019-03-13T09:13:49.221Z,7.70
2019-03-13T09:17:14.601Z,6.63
2019-03-13T09:20:42.887Z,7.13
2019-03-13T09:24:11.301Z,7.73
2019-03-13T09:27:39.766Z,7.70
2019-03-13T09:31:05.556Z,8.13
2019-03-13T09:34:30.973Z,7.43
2019-03-13T09:37:56.555Z,7.60
2019-03-13T09:41:22.057Z,7.87
2019-03-13T09:44:53.641Z,7.47
2019-03-13T09:48:27.728Z,8.93
2019-03-13T09:51:53.121Z,8.60
2019-03-13T09:55:18.730Z,8.43
2019-03-13T09:58:49.827Z,9.03
2019-03-13T10:02:15.593Z,8.13
2019-03-13T10:05:41.499Z,8.60
2019-03-13T10:09:14.964Z,8.93
2019-03-13T10:12:46.008Z,8.70
2019-03-13T10:16:14.304Z,8.43
2019-03-13T10:19:42.922Z,8.67
2019-03-13T10:23:12.956Z,8.47
2019-03-13T10:26:44.113Z,9.40
2019-03-13T10:30:12.644Z,9.93
2019-03-13T10:33:50.087Z,10.57
2019-03-13T10:37:33.526Z,9.53
2019-03-13T10:41:15.538Z,9.40
2019-03-13T10:44:52.593Z,8.87
2019-03-13T10:48:20.892Z,9.77
2019-03-13T10:51:51.968Z,8.93
2019-03-13T10:55:20.250Z,9.80
2019-03-13T10:59:03.506Z,9.53
2019-03-13T11:02:31.770Z,9.20
2019-03-13T11:06:13.835Z,9.17
2019-03-13T11:09:45.449Z,10.13
2019-03-13T11:13:13.826Z,9.97
2019-03-13T11:16:48.246Z,8.77
2019-03-13T11:20:29.906Z,9.90
2019-03-13T11:23:55.486Z,9.63
2019-03-13T11:27:26.923Z,9.57
2019-03-13T11:30:55.270Z,9.77
2019-03-13T11:34:26.731Z,10.03
2019-03-13T11:38:07.354Z,9.30
2019-03-13T11:41:41.974Z,9.37
2019-03-13T11:45:10.224Z,8.33
2019-03-13T11:48:50.823Z,10.33
2019-03-13T11:52:22.103Z,9.40
2019-03-13T11:55:50.251Z,10.93
2019-03-13T11:59:18.453Z,9.57
2019-03-13T12:02:44.187Z,9.67
2019-03-13T12:06:09.596Z,10.53
2019-03-13T12:09:35.626Z,10.23
2019-03-13T12:13:03.714Z,8.53
2019-03-13T12:16:32.082Z,8.93
2019-03-13T12:19:57.471Z,9.20
2019-03-13T12:23:31.553Z,10.47
2019-03-13T12:26:57.014Z,8.93
2019-03-13T12:30:34.315Z,9.97
2019-03-13T12:33:59.796Z,10.27
2019-03-13T12:37:25.169Z,9.73
2019-03-13T12:40:56.220Z,10.50
2019-03-13T12:44:24.352Z,9.07
2019-03-13T12:47:52.991Z,9.00
2019-03-13T12:51:21.688Z,9.73
2019-03-13T12:54:53.205Z,10.30
2019-03-13T12:58:24.866Z,9.90
2019-03-13T13:01:50.381Z,10.10
2019-03-13T13:05:18.841Z,10.30
2019-03-13T13:08:59.443Z,8.47
2019-03-13T13:12:41.066Z,8.73
2019-03-13T13:16:09.885Z,9.13
2019-03-13T13:19:33.591Z,8.60
2019-03-13T13:22:57.401Z,9.37
2019-03-13T13:26:21.305Z,9.57
2019-03-13T13:29:45.402Z,9.97
2019-03-13T13:33:09.276Z,9.93
2019-03-13T13:36:34.149Z,9.33
2019-03-13T13:39:58.035Z,8.80
2019-03-13T13:43:21.885Z,8.80
2019-03-13T13:46:45.611Z,9.20
2019-03-13T13:50:10.101Z,10.00
2019-03-13T13:53:34.029Z,9.33
2019-03-13T13:56:57.846Z,9.57
2019-03-13T14:00:21.868Z,9.40
2019-03-13T14:03:45.743Z,9.10
2019-03-13T14:07:09.666Z,8.93
2019-03-13T14:10:33.458Z,8.60
2019-03-13T14:13:57.270Z,9.53
2019-03-13T14:17:20.979Z,9.43
2019-03-13T14:20:44.909Z,8.87
2019-03-13T14:24:08.935Z,9.07
2019-03-13T14:27:32.701Z,9.23
2019-03-13T14:30:56.575Z,10.00
2019-03-13T14:34:20.319Z,9.07
2019-03-13T14:37:44.243Z,10.00
2019-03-13T14:41:09.661Z,9.53
2019-03-13T14:44:34.929Z,10.00
2019-03-13T14:47:58.920Z,9.80
2019-03-13T14:51:22.696Z,10.67
2019-03-13T14:54:46.694Z,9.60
2019-03-13T14:58:10.702Z,10.53
2019-03-13T15:01:35.100Z,9.90
2019-03-13T15:04:59.090Z,11.67
2019-03-13T15:08:23.056Z,11.50
2019-03-13T15:11:47.352Z,11.30
2019-03-13T15:15:13.855Z,12.23
2019-03-13T15:18:37.875Z,12.27
2019-03-13T15:22:02.518Z,11.53
2019-03-13T15:25:26.744Z,11.57
2019-03-13T15:28:50.811Z,11.60
2019-03-13T15:32:16.588Z,11.43
2019-03-13T15:35:41.253Z,12.40
2019-03-13T15:39:07.277Z,12.60
2019-03-13T15:42:31.260Z,12.60
2019-03-13T15:45:55.288Z,12.77
2019-03-13T15:49:19.134Z,13.17
2019-03-13T15:52:43.119Z,14.37
2019-03-13T15:56:07.007Z,13.03
2019-03-13T15:59:30.950Z,13.23
2019-03-13T16:02:55.765Z,13.50
2019-03-13T16:06:20.062Z,13.83
2019-03-13T16:09:44.085Z,14.87
2019-03-13T16:13:07.846Z,15.90
2019-03-13T16:16:31.928Z,17.80
2019-03-13T16:19:55.980Z,15.40
2019-03-13T16:23:19.761Z,16.97
2019-03-13T16:26:43.688Z,16.63
2019-03-13T16:30:26.125Z,16.50
2019-03-13T16:33:50.823Z,17.97
2019-03-13T16:37:14.777Z,18.60
2019-03-13T16:40:38.529Z,16.83
2019-03-13T16:44:05.131Z,19.07
2019-03-13T16:47:31.748Z,20.97
2019-03-13T16:50:55.489Z,20.73
2019-03-13T16:54:19.511Z,24.30
2019-03-13T16:57:46.463Z,23.17
2019-03-13T17:01:10.408Z,29.57
2019-03-13T17:04:34.402Z,22.67
2019-03-13T17:07:58.279Z,23.83
2019-03-13T17:11:22.011Z,24.57
2019-03-13T17:14:46.089Z,26.43
2019-03-13T17:18:10.159Z,26.63
2019-03-13T17:21:34.009Z,28.20
2019-03-13T17:24:57.691Z,27.73
2019-03-13T17:28:21.661Z,28.13
2019-03-13T17:31:46.282Z,29.97
2019-03-13T17:35:10.360Z,32.90
2019-03-13T17:38:34.189Z,40.70
2019-03-13T17:41:57.995Z,45.30
2019-03-13T17:45:23.045Z,65.87
2019-03-13T17:48:46.878Z,48.27
2019-03-13T17:52:10.731Z,41.33
2019-03-13T17:55:34.638Z,42.30
2019-03-13T17:58:58.565Z,33.47
2019-03-13T18:02:22.395Z,31.83
2019-03-13T18:05:47.249Z,30.07
2019-03-13T18:09:11.087Z,30.37
2019-03-13T18:12:35.390Z,27.10
2019-03-13T18:15:59.373Z,26.83
2019-03-13T18:19:23.293Z,25.47
2019-03-13T18:22:47.363Z,30.93
2019-03-13T18:26:11.211Z,37.47
2019-03-13T18:29:34.969Z,36.57
2019-03-13T18:32:59.089Z,40.30
2019-03-13T18:36:22.865Z,43.43
2019-03-13T18:39:52.136Z,36.03
2019-03-13T18:43:16.009Z,34.57
2019-03-13T18:46:39.864Z,32.57
2019-03-13T18:50:05.039Z,30.43
2019-03-13T18:53:28.891Z,27.57
2019-03-13T18:56:52.981Z,25.00
2019-03-13T19:00:21.917Z,24.20
2019-03-13T19:03:48.514Z,23.13
2019-03-13T19:07:15.228Z,22.13
2019-03-13T19:10:43.943Z,22.17
2019-03-13T19:14:08.722Z,18.63
2019-03-13T19:17:33.731Z,20.37
2019-03-13T19:20:58.654Z,21.93
2019-03-13T19:24:22.712Z,19.73
2019-03-13T19:27:46.599Z,20.87
2019-03-13T19:31:10.642Z,21.37
2019-03-13T19:34:34.650Z,19.20
2019-03-13T19:38:07.621Z,20.07
2019-03-13T19:41:31.573Z,20.57
2019-03-13T19:44:55.428Z,22.23
2019-03-13T19:48:19.381Z,21.57
2019-03-13T19:51:43.138Z,20.03
2019-03-13T19:55:13.719Z,19.77
2019-03-13T19:58:39.720Z,21.10
2019-03-13T20:02:03.570Z,22.13
2019-03-13T20:05:27.479Z,21.77
2019-03-13T20:08:51.400Z,22.70
2019-03-13T20:12:15.208Z,22.97
2019-03-13T20:15:39.573Z,22.43
2019-03-13T20:19:03.542Z,22.37
2019-03-13T20:22:27.653Z,21.37
2019-03-13T20:25:51.606Z,22.10
2019-03-13T20:29:16.267Z,20.47
2019-03-13T20:32:40.545Z,23.00
2019-03-13T20:36:04.612Z,21.83
2019-03-13T20:39:28.419Z,22.23
2019-03-13T20:42:52.481Z,23.50
2019-03-13T20:46:16.245Z,23.30
2019-03-13T20:49:40.278Z,24.77
2019-03-13T20:53:04.169Z,25.50
2019-03-13T20:56:28.663Z,26.30
2019-03-13T20:59:52.570Z,26.57
2019-03-13T21:03:16.424Z,26.63
2019-03-13T21:06:40.413Z,24.70
2019-03-13T21:10:05.797Z,28.03
2019-03-13T21:13:32.080Z,26.80
2019-03-13T21:16:55.912Z,28.73
2019-03-13T21:20:21.603Z,28.33
2019-03-13T21:23:45.523Z,29.10
2019-03-13T21:27:09.429Z,30.10
2019-03-13T21:30:33.337Z,31.43
2019-03-13T21:33:57.163Z,33.83
2019-03-13T21:37:21.368Z,31.83
2019-03-13T21:40:45.218Z,33.73
2019-03-13T21:44:09.165Z,32.10
2019-03-13T21:47:33.323Z,35.20
2019-03-13T21:50:57.305Z,36.33
2019-03-13T21:54:21.267Z,37.97
2019-03-13T21:57:45.511Z,36.13
2019-03-13T22:01:19.108Z,34.50
2019-03-13T22:04:35.700Z,34.20
2019-03-13T22:08:00.469Z,34.63
2019-03-13T22:11:24.224Z,32.07
2019-03-13T22:14:48.107Z,30.67
2019-03-13T22:18:11.799Z,31.17
2019-03-13T22:21:35.751Z,29.73
2019-03-13T22:24:59.477Z,30.00
2019-03-13T22:28:23.379Z,33.30
2019-03-13T22:31:47.158Z,32.07
2019-03-13T22:35:11.041Z,31.43
2019-03-13T22:38:34.786Z,29.73
2019-03-13T22:41:58.936Z,30.47
2019-03-13T22:45:22.980Z,31.70
2019-03-13T22:48:57.622Z,31.07
2019-03-13T22:52:13.196Z,33.47
2019-03-13T22:55:37.372Z,31.67
2019-03-13T22:59:01.239Z,31.67
2019-03-13T23:02:25.281Z,32.30
2019-03-13T23:05:49.123Z,33.30
2019-03-13T23:09:12.965Z,32.97
2019-03-13T23:12:36.760Z,32.27
2019-03-13T23:16:00.634Z,32.30
2019-03-13T23:19:24.577Z,33.80
2019-03-13T23:22:48.458Z,34.33
2019-03-13T23:26:12.345Z,34.13
2019-03-13T23:29:36.138Z,31.20
2019-03-13T23:33:00.069Z,31.57
2019-03-13T23:36:24.009Z,33.70
2019-03-13T23:39:47.825Z,30.43
2019-03-13T23:43:11.580Z,31.20
2019-03-13T23:46:35.345Z,29.33
2019-03-13T23:49:59.166Z,30.87
2019-03-13T23:53:22.903Z,32.00
2019-03-13T23:56:47.167Z,31.00
